sensor_id;sensor_type;location;lat;lon;timestamp;temperature;humidity
65582;DHT22;52231;40.090;18.348;2022-12-17T00:02:30;17.60;91.00
65582;DHT22;52231;40.090;18.348;2022-12-17T00:05:17;17.60;91.00
65582;DHT22;52231;40.090;18.348;2022-12-17T00:08:04;17.50;90.90
65582;DHT22;52231;40.090;18.348;2022-12-17T00:10:50;17.60;90.80
65582;DHT22;52231;40.090;18.348;2022-12-17T00:13:37;17.60;90.80
65582;DHT22;52231;40.090;18.348;2022-12-17T00:16:23;17.60;90.70
65582;DHT22;52231;40.090;18.348;2022-12-17T00:19:10;17.60;90.70
65582;DHT22;52231;40.090;18.348;2022-12-17T00:21:58;17.60;90.60
65582;DHT22;52231;40.090;18.348;2022-12-17T00:24:45;17.70;90.60
65582;DHT22;52231;40.090;18.348;2022-12-17T00:27:31;17.70;90.50
65582;DHT22;52231;40.090;18.348;2022-12-17T00:30:19;17.70;90.50
65582;DHT22;52231;40.090;18.348;2022-12-17T00:33:06;17.70;90.40
65582;DHT22;52231;40.090;18.348;2022-12-17T00:36:10;17.70;90.40
65582;DHT22;52231;40.090;18.348;2022-12-17T00:38:57;17.80;90.30
65582;DHT22;52231;40.090;18.348;2022-12-17T00:41:43;17.80;90.30
65582;DHT22;52231;40.090;18.348;2022-12-17T00:44:30;17.80;90.20
65582;DHT22;52231;40.090;18.348;2022-12-17T00:47:34;17.80;90.20
65582;DHT22;52231;40.090;18.348;2022-12-17T00:50:22;17.80;90.10
65582;DHT22;52231;40.090;18.348;2022-12-17T00:53:08;17.80;90.10
65582;DHT22;52231;40.090;18.348;2022-12-17T00:56:08;17.80;90.10
65582;DHT22;52231;40.090;18.348;2022-12-17T00:58:56;17.80;90.10
65582;DHT22;52231;40.090;18.348;2022-12-17T01:01:43;17.80;90.00
65582;DHT22;52231;40.090;18.348;2022-12-17T01:04:29;17.80;90.00
65582;DHT22;52231;40.090;18.348;2022-12-17T01:07:16;17.80;89.90
65582;DHT22;52231;40.090;18.348;2022-12-17T01:10:03;17.80;89.90
65582;DHT22;52231;40.090;18.348;2022-12-17T01:12:49;17.80;89.80
65582;DHT22;52231;40.090;18.348;2022-12-17T01:15:36;17.80;89.80
65582;DHT22;52231;40.090;18.348;2022-12-17T01:18:22;17.80;89.80
65582;DHT22;52231;40.090;18.348;2022-12-17T01:21:09;17.70;89.80
65582;DHT22;52231;40.090;18.348;2022-12-17T01:23:55;17.60;89.90
65582;DHT22;52231;40.090;18.348;2022-12-17T01:26:42;17.50;90.10
65582;DHT22;52231;40.090;18.348;2022-12-17T01:29:30;17.40;90.30
65582;DHT22;52231;40.090;18.348;2022-12-17T01:32:36;17.40;90.40
65582;DHT22;52231;40.090;18.348;2022-12-17T01:35:23;17.30;90.50
65582;DHT22;52231;40.090;18.348;2022-12-17T01:38:14;17.20;90.60
65582;DHT22;52231;40.090;18.348;2022-12-17T01:41:02;17.20;90.70
65582;DHT22;52231;40.090;18.348;2022-12-17T01:43:51;17.10;90.90
65582;DHT22;52231;40.090;18.348;2022-12-17T01:46:43;17.10;91.00
65582;DHT22;52231;40.090;18.348;2022-12-17T01:49:33;17.00;91.00
65582;DHT22;52231;40.090;18.348;2022-12-17T01:52:19;17.00;91.10
65582;DHT22;52231;40.090;18.348;2022-12-17T01:55:06;17.00;91.10
65582;DHT22;52231;40.090;18.348;2022-12-17T01:57:53;16.90;91.10
65582;DHT22;52231;40.090;18.348;2022-12-17T02:00:41;16.90;91.20
65582;DHT22;52231;40.090;18.348;2022-12-17T02:03:27;16.80;91.20
65582;DHT22;52231;40.090;18.348;2022-12-17T02:06:25;16.80;91.30
65582;DHT22;52231;40.090;18.348;2022-12-17T02:10:08;16.80;91.40
65582;DHT22;52231;40.090;18.348;2022-12-17T02:12:27;16.70;91.50
65582;DHT22;52231;40.090;18.348;2022-12-17T02:18:17;16.60;91.60
65582;DHT22;52231;40.090;18.348;2022-12-17T02:21:07;16.60;91.60
65582;DHT22;52231;40.090;18.348;2022-12-17T02:24:13;16.50;91.70
65582;DHT22;52231;40.090;18.348;2022-12-17T02:27:05;16.50;91.70
65582;DHT22;52231;40.090;18.348;2022-12-17T02:29:56;16.50;91.80
65582;DHT22;52231;40.090;18.348;2022-12-17T02:32:46;16.40;91.80
65582;DHT22;52231;40.090;18.348;2022-12-17T02:35:46;16.30;91.80
65582;DHT22;52231;40.090;18.348;2022-12-17T02:38:35;16.30;91.90
65582;DHT22;52231;40.090;18.348;2022-12-17T02:41:39;16.20;91.90
65582;DHT22;52231;40.090;18.348;2022-12-17T02:44:28;16.20;92.00
65582;DHT22;52231;40.090;18.348;2022-12-17T02:47:16;16.30;92.00
65582;DHT22;52231;40.090;18.348;2022-12-17T02:50:04;16.20;92.10
65582;DHT22;52231;40.090;18.348;2022-12-17T02:52:53;16.20;92.20
65582;DHT22;52231;40.090;18.348;2022-12-17T02:55:39;16.20;92.30
65582;DHT22;52231;40.090;18.348;2022-12-17T02:58:26;16.10;92.30
65582;DHT22;52231;40.090;18.348;2022-12-17T03:01:13;16.10;92.40
65582;DHT22;52231;40.090;18.348;2022-12-17T03:04:03;16.10;92.40
65582;DHT22;52231;40.090;18.348;2022-12-17T03:06:50;16.10;92.50
65582;DHT22;52231;40.090;18.348;2022-12-17T03:09:36;16.00;92.40
65582;DHT22;52231;40.090;18.348;2022-12-17T03:12:24;16.00;92.50
65582;DHT22;52231;40.090;18.348;2022-12-17T03:15:11;15.90;92.60
65582;DHT22;52231;40.090;18.348;2022-12-17T03:17:57;15.90;92.60
65582;DHT22;52231;40.090;18.348;2022-12-17T03:20:45;15.90;92.60
65582;DHT22;52231;40.090;18.348;2022-12-17T03:23:31;15.90;92.60
65582;DHT22;52231;40.090;18.348;2022-12-17T03:26:18;15.90;92.70
65582;DHT22;52231;40.090;18.348;2022-12-17T03:29:05;15.80;92.70
65582;DHT22;52231;40.090;18.348;2022-12-17T03:31:52;15.90;92.80
65582;DHT22;52231;40.090;18.348;2022-12-17T03:34:38;15.80;92.80
65582;DHT22;52231;40.090;18.348;2022-12-17T03:37:25;15.80;92.90
65582;DHT22;52231;40.090;18.348;2022-12-17T03:40:12;15.80;92.90
65582;DHT22;52231;40.090;18.348;2022-12-17T03:43:05;15.80;93.00
65582;DHT22;52231;40.090;18.348;2022-12-17T03:45:53;15.70;92.90
65582;DHT22;52231;40.090;18.348;2022-12-17T03:48:40;15.70;93.00
65582;DHT22;52231;40.090;18.348;2022-12-17T03:51:26;15.60;93.00
65582;DHT22;52231;40.090;18.348;2022-12-17T03:54:13;15.60;93.10
65582;DHT22;52231;40.090;18.348;2022-12-17T03:56:59;15.60;93.10
65582;DHT22;52231;40.090;18.348;2022-12-17T03:59:46;15.50;93.10
65582;DHT22;52231;40.090;18.348;2022-12-17T04:02:38;15.50;93.20
65582;DHT22;52231;40.090;18.348;2022-12-17T04:05:26;15.50;93.20
65582;DHT22;52231;40.090;18.348;2022-12-17T04:08:12;15.40;93.20
65582;DHT22;52231;40.090;18.348;2022-12-17T04:10:59;15.40;93.20
65582;DHT22;52231;40.090;18.348;2022-12-17T04:13:45;15.40;93.20
65582;DHT22;52231;40.090;18.348;2022-12-17T04:16:33;15.30;93.20
65582;DHT22;52231;40.090;18.348;2022-12-17T04:19:20;15.30;93.20
65582;DHT22;52231;40.090;18.348;2022-12-17T04:22:07;15.30;93.20
65582;DHT22;52231;40.090;18.348;2022-12-17T04:24:54;15.30;93.20
65582;DHT22;52231;40.090;18.348;2022-12-17T04:27:40;15.40;93.20
65582;DHT22;52231;40.090;18.348;2022-12-17T04:30:27;15.40;93.20
65582;DHT22;52231;40.090;18.348;2022-12-17T04:33:17;15.40;93.20
65582;DHT22;52231;40.090;18.348;2022-12-17T04:36:04;15.30;93.20
65582;DHT22;52231;40.090;18.348;2022-12-17T04:38:51;15.30;93.20
65582;DHT22;52231;40.090;18.348;2022-12-17T04:41:37;15.30;93.20
65582;DHT22;52231;40.090;18.348;2022-12-17T04:44:24;15.30;93.30
65582;DHT22;52231;40.090;18.348;2022-12-17T04:47:10;15.20;93.30
65582;DHT22;52231;40.090;18.348;2022-12-17T04:49:57;15.20;93.20
65582;DHT22;52231;40.090;18.348;2022-12-17T04:52:44;15.20;93.20
65582;DHT22;52231;40.090;18.348;2022-12-17T04:55:30;15.20;93.20
65582;DHT22;52231;40.090;18.348;2022-12-17T04:58:17;15.20;93.20
65582;DHT22;52231;40.090;18.348;2022-12-17T05:01:04;15.20;93.20
65582;DHT22;52231;40.090;18.348;2022-12-17T05:03:50;15.20;93.30
65582;DHT22;52231;40.090;18.348;2022-12-17T05:06:37;15.10;93.20
65582;DHT22;52231;40.090;18.348;2022-12-17T05:09:23;15.10;93.20
65582;DHT22;52231;40.090;18.348;2022-12-17T05:12:10;15.10;93.20
65582;DHT22;52231;40.090;18.348;2022-12-17T05:14:56;15.00;93.20
65582;DHT22;52231;40.090;18.348;2022-12-17T05:17:43;14.90;93.20
65582;DHT22;52231;40.090;18.348;2022-12-17T05:20:30;14.80;93.20
65582;DHT22;52231;40.090;18.348;2022-12-17T05:23:19;14.80;93.20
65582;DHT22;52231;40.090;18.348;2022-12-17T05:26:12;14.80;93.20
65582;DHT22;52231;40.090;18.348;2022-12-17T05:29:03;14.80;93.20
65582;DHT22;52231;40.090;18.348;2022-12-17T05:31:54;14.80;93.20
65582;DHT22;52231;40.090;18.348;2022-12-17T05:34:41;14.80;93.20
65582;DHT22;52231;40.090;18.348;2022-12-17T05:37:27;14.70;93.20
65582;DHT22;52231;40.090;18.348;2022-12-17T05:40:14;14.70;93.20
65582;DHT22;52231;40.090;18.348;2022-12-17T05:43:03;14.70;93.20
65582;DHT22;52231;40.090;18.348;2022-12-17T05:45:50;14.60;93.20
65582;DHT22;52231;40.090;18.348;2022-12-17T05:48:38;14.60;93.20
65582;DHT22;52231;40.090;18.348;2022-12-17T05:51:30;14.60;93.20
65582;DHT22;52231;40.090;18.348;2022-12-17T05:54:17;14.50;93.20
65582;DHT22;52231;40.090;18.348;2022-12-17T05:57:03;14.50;93.20
65582;DHT22;52231;40.090;18.348;2022-12-17T05:59:50;14.40;93.20
65582;DHT22;52231;40.090;18.348;2022-12-17T06:02:40;14.30;93.20
65582;DHT22;52231;40.090;18.348;2022-12-17T06:05:26;14.30;93.20
65582;DHT22;52231;40.090;18.348;2022-12-17T06:08:31;14.30;93.20
65582;DHT22;52231;40.090;18.348;2022-12-17T06:11:18;14.20;93.20
65582;DHT22;52231;40.090;18.348;2022-12-17T06:14:04;14.20;93.20
65582;DHT22;52231;40.090;18.348;2022-12-17T06:16:51;14.10;93.10
65582;DHT22;52231;40.090;18.348;2022-12-17T06:19:37;14.10;93.10
65582;DHT22;52231;40.090;18.348;2022-12-17T06:22:25;14.10;93.10
65582;DHT22;52231;40.090;18.348;2022-12-17T06:25:30;14.10;93.10
65582;DHT22;52231;40.090;18.348;2022-12-17T06:28:17;14.00;93.10
65582;DHT22;52231;40.090;18.348;2022-12-17T06:31:04;14.10;93.00
65582;DHT22;52231;40.090;18.348;2022-12-17T06:33:50;14.20;93.00
65582;DHT22;52231;40.090;18.348;2022-12-17T06:36:37;14.20;93.10
65582;DHT22;52231;40.090;18.348;2022-12-17T06:39:23;14.30;93.10
65582;DHT22;52231;40.090;18.348;2022-12-17T06:42:29;14.30;93.10
65582;DHT22;52231;40.090;18.348;2022-12-17T06:45:15;14.30;93.10
65582;DHT22;52231;40.090;18.348;2022-12-17T06:48:04;14.50;93.10
65582;DHT22;52231;40.090;18.348;2022-12-17T06:50:55;14.70;93.10
65582;DHT22;52231;40.090;18.348;2022-12-17T06:53:41;14.90;93.10
65582;DHT22;52231;40.090;18.348;2022-12-17T06:56:28;15.10;93.10
65582;DHT22;52231;40.090;18.348;2022-12-17T06:59:14;15.30;93.10
65582;DHT22;52231;40.090;18.348;2022-12-17T07:02:01;15.40;93.10
65582;DHT22;52231;40.090;18.348;2022-12-17T07:04:48;15.60;93.10
65582;DHT22;52231;40.090;18.348;2022-12-17T07:07:34;15.80;93.00
65582;DHT22;52231;40.090;18.348;2022-12-17T07:10:21;15.90;93.00
65582;DHT22;52231;40.090;18.348;2022-12-17T07:13:08;16.10;92.90
65582;DHT22;52231;40.090;18.348;2022-12-17T07:15:55;16.30;92.90
65582;DHT22;52231;40.090;18.348;2022-12-17T07:18:41;16.50;92.70
65582;DHT22;52231;40.090;18.348;2022-12-17T07:21:28;16.70;92.40
65582;DHT22;52231;40.090;18.348;2022-12-17T07:24:14;16.80;92.20
65582;DHT22;52231;40.090;18.348;2022-12-17T07:27:01;17.00;91.80
65582;DHT22;52231;40.090;18.348;2022-12-17T07:29:47;17.30;91.60
65582;DHT22;52231;40.090;18.348;2022-12-17T07:33:04;17.40;90.80
65582;DHT22;52231;40.090;18.348;2022-12-17T07:35:54;17.70;90.40
65582;DHT22;52231;40.090;18.348;2022-12-17T07:38:59;17.90;89.80
65582;DHT22;52231;40.090;18.348;2022-12-17T07:41:46;18.20;89.30
65582;DHT22;52231;40.090;18.348;2022-12-17T07:44:32;18.40;88.80
65582;DHT22;52231;40.090;18.348;2022-12-17T07:47:19;18.70;88.40
65582;DHT22;52231;40.090;18.348;2022-12-17T07:50:06;18.90;87.20
65582;DHT22;52231;40.090;18.348;2022-12-17T07:53:03;19.30;86.70
65582;DHT22;52231;40.090;18.348;2022-12-17T07:55:50;19.50;85.40
65582;DHT22;52231;40.090;18.348;2022-12-17T07:58:37;19.80;84.80
65582;DHT22;52231;40.090;18.348;2022-12-17T08:01:24;19.90;84.00
65582;DHT22;52231;40.090;18.348;2022-12-17T08:04:10;19.90;83.10
65582;DHT22;52231;40.090;18.348;2022-12-17T08:06:57;20.00;81.90
65582;DHT22;52231;40.090;18.348;2022-12-17T08:09:44;20.10;80.40
65582;DHT22;52231;40.090;18.348;2022-12-17T08:12:30;20.10;79.80
65582;DHT22;52231;40.090;18.348;2022-12-17T08:15:16;20.10;78.90
65582;DHT22;52231;40.090;18.348;2022-12-17T08:18:03;20.30;78.90
65582;DHT22;52231;40.090;18.348;2022-12-17T08:21:10;20.50;77.90
65582;DHT22;52231;40.090;18.348;2022-12-17T08:23:57;20.80;76.20
65582;DHT22;52231;40.090;18.348;2022-12-17T08:26:44;20.80;74.20
65582;DHT22;52231;40.090;18.348;2022-12-17T08:29:49;20.80;74.60
65582;DHT22;52231;40.090;18.348;2022-12-17T08:32:36;20.90;72.50
65582;DHT22;52231;40.090;18.348;2022-12-17T08:35:22;20.90;71.90
65582;DHT22;52231;40.090;18.348;2022-12-17T08:38:09;21.00;72.30
65582;DHT22;52231;40.090;18.348;2022-12-17T08:40:55;21.00;71.70
65582;DHT22;52231;40.090;18.348;2022-12-17T08:43:44;21.10;71.60
65582;DHT22;52231;40.090;18.348;2022-12-17T08:46:31;21.30;70.50
65582;DHT22;52231;40.090;18.348;2022-12-17T08:49:17;21.40;69.00
65582;DHT22;52231;40.090;18.348;2022-12-17T08:52:04;21.60;67.60
65582;DHT22;52231;40.090;18.348;2022-12-17T08:54:51;21.70;67.60
65582;DHT22;52231;40.090;18.348;2022-12-17T08:57:37;21.80;66.30
65582;DHT22;52231;40.090;18.348;2022-12-17T09:00:24;21.90;66.30
65582;DHT22;52231;40.090;18.348;2022-12-17T09:03:10;21.90;64.60
65582;DHT22;52231;40.090;18.348;2022-12-17T09:05:56;21.80;63.40
65582;DHT22;52231;40.090;18.348;2022-12-17T09:08:43;21.60;63.20
65582;DHT22;52231;40.090;18.348;2022-12-17T09:11:30;21.50;63.90
65582;DHT22;52231;40.090;18.348;2022-12-17T09:14:34;21.40;63.70
65582;DHT22;52231;40.090;18.348;2022-12-17T09:17:21;21.40;64.50
65582;DHT22;52231;40.090;18.348;2022-12-17T09:20:08;21.30;65.10
65582;DHT22;52231;40.090;18.348;2022-12-17T09:22:56;21.30;65.60
65582;DHT22;52231;40.090;18.348;2022-12-17T09:25:50;21.20;65.10
65582;DHT22;52231;40.090;18.348;2022-12-17T09:28:37;21.20;65.10
65582;DHT22;52231;40.090;18.348;2022-12-17T09:31:24;21.00;64.40
65582;DHT22;52231;40.090;18.348;2022-12-17T09:34:11;21.00;64.20
65582;DHT22;52231;40.090;18.348;2022-12-17T09:36:59;21.00;64.20
65582;DHT22;52231;40.090;18.348;2022-12-17T09:39:46;21.00;64.50
65582;DHT22;52231;40.090;18.348;2022-12-17T09:42:50;20.90;64.00
65582;DHT22;52231;40.090;18.348;2022-12-17T09:45:52;20.90;63.80
65582;DHT22;52231;40.090;18.348;2022-12-17T09:51:41;21.10;63.70
65582;DHT22;52231;40.090;18.348;2022-12-17T09:54:47;21.00;63.30
65582;DHT22;52231;40.090;18.348;2022-12-17T09:57:36;21.10;63.50
65582;DHT22;52231;40.090;18.348;2022-12-17T10:00:27;21.30;62.90
65582;DHT22;52231;40.090;18.348;2022-12-17T10:03:17;21.60;61.20
65582;DHT22;52231;40.090;18.348;2022-12-17T10:06:32;21.80;59.90
65582;DHT22;52231;40.090;18.348;2022-12-17T10:09:19;21.90;59.50
65582;DHT22;52231;40.090;18.348;2022-12-17T10:12:17;22.10;58.10
65582;DHT22;52231;40.090;18.348;2022-12-17T10:15:05;22.10;58.80
65582;DHT22;52231;40.090;18.348;2022-12-17T10:17:52;22.00;58.80
65582;DHT22;52231;40.090;18.348;2022-12-17T10:20:46;22.00;59.40
65582;DHT22;52231;40.090;18.348;2022-12-17T10:23:36;21.90;59.70
65582;DHT22;52231;40.090;18.348;2022-12-17T10:26:28;21.90;59.30
65582;DHT22;52231;40.090;18.348;2022-12-17T10:29:22;22.00;60.30
65582;DHT22;52231;40.090;18.348;2022-12-17T10:35:24;21.80;60.10
65582;DHT22;52231;40.090;18.348;2022-12-17T10:38:32;21.90;59.20
65582;DHT22;52231;40.090;18.348;2022-12-17T10:44:38;22.30;57.70
65582;DHT22;52231;40.090;18.348;2022-12-17T10:47:26;22.60;56.90
65582;DHT22;52231;40.090;18.348;2022-12-17T10:50:14;22.60;56.10
65582;DHT22;52231;40.090;18.348;2022-12-17T10:53:03;22.30;54.90
65582;DHT22;52231;40.090;18.348;2022-12-17T10:55:56;22.10;55.70
65582;DHT22;52231;40.090;18.348;2022-12-17T10:58:51;22.10;56.20
65582;DHT22;52231;40.090;18.348;2022-12-17T11:01:41;22.20;57.30
65582;DHT22;52231;40.090;18.348;2022-12-17T11:04:31;22.20;55.30
65582;DHT22;52231;40.090;18.348;2022-12-17T11:07:24;22.10;54.50
65582;DHT22;52231;40.090;18.348;2022-12-17T11:10:22;22.00;55.40
65582;DHT22;52231;40.090;18.348;2022-12-17T11:13:37;22.20;55.40
65582;DHT22;52231;40.090;18.348;2022-12-17T11:16:30;22.20;54.70
65582;DHT22;52231;40.090;18.348;2022-12-17T11:22:35;22.00;56.90
65582;DHT22;52231;40.090;18.348;2022-12-17T11:28:25;21.50;57.90
65582;DHT22;52231;40.090;18.348;2022-12-17T11:37:20;21.50;59.60
65582;DHT22;52231;40.090;18.348;2022-12-17T11:58:45;22.60;56.00
65582;DHT22;52231;40.090;18.348;2022-12-17T12:02:20;22.20;56.10
65582;DHT22;52231;40.090;18.348;2022-12-17T12:05:26;21.80;56.90
65582;DHT22;52231;40.090;18.348;2022-12-17T12:08:23;21.70;57.20
65582;DHT22;52231;40.090;18.348;2022-12-17T12:14:17;21.40;57.60
65582;DHT22;52231;40.090;18.348;2022-12-17T12:17:29;21.30;58.20
65582;DHT22;52231;40.090;18.348;2022-12-17T12:26:26;21.30;58.80
65582;DHT22;52231;40.090;18.348;2022-12-17T12:35:54;21.90;58.20
65582;DHT22;52231;40.090;18.348;2022-12-17T12:38:56;22.10;57.80
65582;DHT22;52231;40.090;18.348;2022-12-17T12:47:58;22.40;55.60
65582;DHT22;52231;40.090;18.348;2022-12-17T12:51:02;22.30;55.30
65582;DHT22;52231;40.090;18.348;2022-12-17T12:53:59;22.30;55.80
65582;DHT22;52231;40.090;18.348;2022-12-17T12:56:46;22.20;56.30
65582;DHT22;52231;40.090;18.348;2022-12-17T12:59:34;22.00;56.60
65582;DHT22;52231;40.090;18.348;2022-12-17T13:02:31;22.20;57.40
65582;DHT22;52231;40.090;18.348;2022-12-17T13:05:33;22.20;57.20
65582;DHT22;52231;40.090;18.348;2022-12-17T13:08:23;22.20;55.70
65582;DHT22;52231;40.090;18.348;2022-12-17T13:10:52;22.30;55.70
65582;DHT22;52231;40.090;18.348;2022-12-17T13:13:33;22.30;55.60
65582;DHT22;52231;40.090;18.348;2022-12-17T13:16:30;22.20;54.70
65582;DHT22;52231;40.090;18.348;2022-12-17T13:25:09;21.90;57.30
65582;DHT22;52231;40.090;18.348;2022-12-17T13:27:42;21.90;58.00
65582;DHT22;52231;40.090;18.348;2022-12-17T13:38:19;21.30;58.60
65582;DHT22;52231;40.090;18.348;2022-12-17T13:43:45;21.10;59.60
65582;DHT22;52231;40.090;18.348;2022-12-17T13:46:24;21.00;60.00
65582;DHT22;52231;40.090;18.348;2022-12-17T13:49:00;20.90;59.70
65582;DHT22;52231;40.090;18.348;2022-12-17T13:51:34;20.90;60.60
65582;DHT22;52231;40.090;18.348;2022-12-17T13:54:03;20.90;60.20
65582;DHT22;52231;40.090;18.348;2022-12-17T13:56:36;20.90;60.60
65582;DHT22;52231;40.090;18.348;2022-12-17T13:59:05;20.80;61.00
65582;DHT22;52231;40.090;18.348;2022-12-17T14:01:46;20.90;61.20
65582;DHT22;52231;40.090;18.348;2022-12-17T14:04:28;20.90;60.80
65582;DHT22;52231;40.090;18.348;2022-12-17T14:07:04;20.90;60.60
65582;DHT22;52231;40.090;18.348;2022-12-17T14:09:37;20.90;60.30
65582;DHT22;52231;40.090;18.348;2022-12-17T14:12:06;20.90;60.70
65582;DHT22;52231;40.090;18.348;2022-12-17T14:14:56;20.80;60.50
65582;DHT22;52231;40.090;18.348;2022-12-17T14:20:15;20.60;60.80
65582;DHT22;52231;40.090;18.348;2022-12-17T14:22:52;20.40;60.70
65582;DHT22;52231;40.090;18.348;2022-12-17T14:25:32;20.30;61.00
65582;DHT22;52231;40.090;18.348;2022-12-17T14:30:36;20.10;62.60
65582;DHT22;52231;40.090;18.348;2022-12-17T14:33:35;20.10;63.60
65582;DHT22;52231;40.090;18.348;2022-12-17T14:36:19;19.90;63.70
65582;DHT22;52231;40.090;18.348;2022-12-17T14:38:57;19.80;64.20
65582;DHT22;52231;40.090;18.348;2022-12-17T14:41:28;19.70;65.40
65582;DHT22;52231;40.090;18.348;2022-12-17T14:44:25;19.60;66.00
65582;DHT22;52231;40.090;18.348;2022-12-17T14:47:08;19.50;66.40
65582;DHT22;52231;40.090;18.348;2022-12-17T14:49:54;19.40;66.70
65582;DHT22;52231;40.090;18.348;2022-12-17T14:52:49;19.30;67.40
65582;DHT22;52231;40.090;18.348;2022-12-17T14:55:58;19.30;68.20
65582;DHT22;52231;40.090;18.348;2022-12-17T14:58:30;19.10;69.10
65582;DHT22;52231;40.090;18.348;2022-12-17T15:01:09;19.00;69.50
65582;DHT22;52231;40.090;18.348;2022-12-17T15:04:03;18.90;69.90
65582;DHT22;52231;40.090;18.348;2022-12-17T15:06:34;18.80;70.30
65582;DHT22;52231;40.090;18.348;2022-12-17T15:09:03;18.70;70.90
65582;DHT22;52231;40.090;18.348;2022-12-17T15:11:32;18.70;71.10
65582;DHT22;52231;40.090;18.348;2022-12-17T15:14:00;18.50;71.40
65582;DHT22;52231;40.090;18.348;2022-12-17T15:16:28;18.40;71.60
65582;DHT22;52231;40.090;18.348;2022-12-17T15:18:56;18.30;71.80
65582;DHT22;52231;40.090;18.348;2022-12-17T15:21:25;18.20;72.20
65582;DHT22;52231;40.090;18.348;2022-12-17T15:23:54;18.10;72.70
65582;DHT22;52231;40.090;18.348;2022-12-17T15:26:25;18.00;73.00
65582;DHT22;52231;40.090;18.348;2022-12-17T15:28:54;17.90;73.50
65582;DHT22;52231;40.090;18.348;2022-12-17T15:31:24;17.80;74.00
65582;DHT22;52231;40.090;18.348;2022-12-17T15:33:54;17.70;74.40
65582;DHT22;52231;40.090;18.348;2022-12-17T15:36:23;17.60;75.20
65582;DHT22;52231;40.090;18.348;2022-12-17T15:38:51;17.50;75.70
65582;DHT22;52231;40.090;18.348;2022-12-17T15:41:19;17.30;76.00
65582;DHT22;52231;40.090;18.348;2022-12-17T15:44:06;17.30;76.60
65582;DHT22;52231;40.090;18.348;2022-12-17T15:46:34;17.20;77.10
65582;DHT22;52231;40.090;18.348;2022-12-17T15:49:02;17.10;77.50
65582;DHT22;52231;40.090;18.348;2022-12-17T15:51:31;17.00;77.70
65582;DHT22;52231;40.090;18.348;2022-12-17T15:53:59;16.90;78.00
65582;DHT22;52231;40.090;18.348;2022-12-17T15:56:27;16.80;78.10
65582;DHT22;52231;40.090;18.348;2022-12-17T15:58:57;16.80;78.30
65582;DHT22;52231;40.090;18.348;2022-12-17T16:01:26;16.70;78.50
65582;DHT22;52231;40.090;18.348;2022-12-17T16:03:54;16.70;78.70
65582;DHT22;52231;40.090;18.348;2022-12-17T16:06:22;16.50;78.90
65582;DHT22;52231;40.090;18.348;2022-12-17T16:08:50;16.40;79.10
65582;DHT22;52231;40.090;18.348;2022-12-17T16:11:19;16.30;79.30
65582;DHT22;52231;40.090;18.348;2022-12-17T16:13:52;16.30;79.60
65582;DHT22;52231;40.090;18.348;2022-12-17T16:16:22;16.20;79.90
65582;DHT22;52231;40.090;18.348;2022-12-17T16:18:51;16.20;80.30
65582;DHT22;52231;40.090;18.348;2022-12-17T16:21:19;16.10;80.40
65582;DHT22;52231;40.090;18.348;2022-12-17T16:23:48;16.00;80.60
65582;DHT22;52231;40.090;18.348;2022-12-17T16:26:16;15.90;80.50
65582;DHT22;52231;40.090;18.348;2022-12-17T16:28:44;15.80;80.80
65582;DHT22;52231;40.090;18.348;2022-12-17T16:31:14;15.80;81.20
65582;DHT22;52231;40.090;18.348;2022-12-17T16:33:44;15.70;81.50
65582;DHT22;52231;40.090;18.348;2022-12-17T16:36:16;15.80;81.70
65582;DHT22;52231;40.090;18.348;2022-12-17T16:38:46;15.70;82.00
65582;DHT22;52231;40.090;18.348;2022-12-17T16:41:15;15.60;82.30
65582;DHT22;52231;40.090;18.348;2022-12-17T16:43:44;15.60;82.50
65582;DHT22;52231;40.090;18.348;2022-12-17T16:46:35;15.60;82.70
65582;DHT22;52231;40.090;18.348;2022-12-17T16:49:12;15.50;82.70
65582;DHT22;52231;40.090;18.348;2022-12-17T16:51:42;15.40;82.90
65582;DHT22;52231;40.090;18.348;2022-12-17T16:54:16;15.40;82.90
65582;DHT22;52231;40.090;18.348;2022-12-17T16:56:45;15.40;83.00
65582;DHT22;52231;40.090;18.348;2022-12-17T16:59:14;15.30;83.10
65582;DHT22;52231;40.090;18.348;2022-12-17T17:01:45;15.30;83.20
65582;DHT22;52231;40.090;18.348;2022-12-17T17:04:15;15.30;83.50
65582;DHT22;52231;40.090;18.348;2022-12-17T17:06:50;15.30;83.60
65582;DHT22;52231;40.090;18.348;2022-12-17T17:09:19;15.20;83.80
65582;DHT22;52231;40.090;18.348;2022-12-17T17:11:47;15.20;84.00
65582;DHT22;52231;40.090;18.348;2022-12-17T17:14:18;15.10;84.10
65582;DHT22;52231;40.090;18.348;2022-12-17T17:16:46;15.10;84.20
65582;DHT22;52231;40.090;18.348;2022-12-17T17:19:15;15.00;84.30
65582;DHT22;52231;40.090;18.348;2022-12-17T17:21:49;15.00;84.40
65582;DHT22;52231;40.090;18.348;2022-12-17T17:24:20;15.00;84.50
65582;DHT22;52231;40.090;18.348;2022-12-17T17:26:50;15.00;84.60
65582;DHT22;52231;40.090;18.348;2022-12-17T17:29:19;14.90;84.70
65582;DHT22;52231;40.090;18.348;2022-12-17T17:31:47;14.90;84.70
65582;DHT22;52231;40.090;18.348;2022-12-17T17:34:36;14.80;84.50
65582;DHT22;52231;40.090;18.348;2022-12-17T17:37:05;14.80;84.50
65582;DHT22;52231;40.090;18.348;2022-12-17T17:39:34;14.80;84.60
65582;DHT22;52231;40.090;18.348;2022-12-17T17:42:02;14.80;84.60
65582;DHT22;52231;40.090;18.348;2022-12-17T17:44:30;14.80;84.50
65582;DHT22;52231;40.090;18.348;2022-12-17T17:46:58;14.80;84.30
65582;DHT22;52231;40.090;18.348;2022-12-17T17:49:27;14.70;84.40
65582;DHT22;52231;40.090;18.348;2022-12-17T17:51:55;14.70;84.60
65582;DHT22;52231;40.090;18.348;2022-12-17T17:54:39;14.70;84.50
65582;DHT22;52231;40.090;18.348;2022-12-17T17:57:08;14.70;84.60
65582;DHT22;52231;40.090;18.348;2022-12-17T17:59:37;14.70;84.80
65582;DHT22;52231;40.090;18.348;2022-12-17T18:02:09;14.60;84.80
65582;DHT22;52231;40.090;18.348;2022-12-17T18:04:37;14.60;84.80
65582;DHT22;52231;40.090;18.348;2022-12-17T18:07:06;14.60;85.00
65582;DHT22;52231;40.090;18.348;2022-12-17T18:09:50;14.50;85.10
65582;DHT22;52231;40.090;18.348;2022-12-17T18:12:18;14.60;85.20
65582;DHT22;52231;40.090;18.348;2022-12-17T18:15:05;14.50;85.30
65582;DHT22;52231;40.090;18.348;2022-12-17T18:17:44;14.50;85.40
65582;DHT22;52231;40.090;18.348;2022-12-17T18:20:13;14.40;85.50
65582;DHT22;52231;40.090;18.348;2022-12-17T18:22:41;14.40;85.50
65582;DHT22;52231;40.090;18.348;2022-12-17T18:25:09;14.30;85.50
65582;DHT22;52231;40.090;18.348;2022-12-17T18:27:38;14.30;85.40
65582;DHT22;52231;40.090;18.348;2022-12-17T18:30:06;14.20;85.50
65582;DHT22;52231;40.090;18.348;2022-12-17T18:32:35;14.20;85.70